sensor_id;sensor_type;location;lat;lon;timestamp;P1;durP1;ratioP1;P2;durP2;ratioP2
48534;SDS011;34323;52.022;5.686;2022-10-10T00:00:37;5.30;;;2.20;;
48534;SDS011;34323;52.022;5.686;2022-10-10T00:03:04;6.63;;;2.17;;
48534;SDS011;34323;52.022;5.686;2022-10-10T00:05:30;3.85;;;2.20;;
48534;SDS011;34323;52.022;5.686;2022-10-10T00:07:55;6.05;;;2.15;;
48534;SDS011;34323;52.022;5.686;2022-10-10T00:10:21;5.18;;;2.00;;
48534;SDS011;34323;52.022;5.686;2022-10-10T00:12:47;6.75;;;2.42;;
48534;SDS011;34323;52.022;5.686;2022-10-10T00:15:13;3.58;;;2.22;;
48534;SDS011;34323;52.022;5.686;2022-10-10T00:17:39;3.33;;;2.05;;
48534;SDS011;34323;52.022;5.686;2022-10-10T00:20:07;4.50;;;2.50;;
48534;SDS011;34323;52.022;5.686;2022-10-10T00:22:33;5.10;;;2.33;;
48534;SDS011;34323;52.022;5.686;2022-10-10T00:24:59;4.95;;;2.85;;
48534;SDS011;34323;52.022;5.686;2022-10-10T00:27:24;5.38;;;2.47;;
48534;SDS011;34323;52.022;5.686;2022-10-10T00:29:50;4.13;;;2.55;;
48534;SDS011;34323;52.022;5.686;2022-10-10T00:32:15;4.03;;;2.42;;
48534;SDS011;34323;52.022;5.686;2022-10-10T00:34:41;3.22;;;2.17;;
48534;SDS011;34323;52.022;5.686;2022-10-10T00:37:06;6.60;;;2.88;;
48534;SDS011;34323;52.022;5.686;2022-10-10T00:39:32;3.55;;;2.63;;
48534;SDS011;34323;52.022;5.686;2022-10-10T00:41:57;5.10;;;2.88;;
48534;SDS011;34323;52.022;5.686;2022-10-10T00:44:23;5.90;;;2.72;;
48534;SDS011;34323;52.022;5.686;2022-10-10T00:46:51;4.72;;;2.40;;
48534;SDS011;34323;52.022;5.686;2022-10-10T00:49:18;4.75;;;2.38;;
48534;SDS011;34323;52.022;5.686;2022-10-10T00:51:48;6.28;;;3.03;;
48534;SDS011;34323;52.022;5.686;2022-10-10T00:54:17;4.88;;;2.90;;
48534;SDS011;34323;52.022;5.686;2022-10-10T00:56:49;8.27;;;2.78;;
48534;SDS011;34323;52.022;5.686;2022-10-10T00:59:30;5.72;;;2.17;;
48534;SDS011;34323;52.022;5.686;2022-10-10T01:01:57;5.22;;;2.75;;
48534;SDS011;34323;52.022;5.686;2022-10-10T01:04:45;12.20;;;2.50;;
48534;SDS011;34323;52.022;5.686;2022-10-10T01:07:12;9.73;;;2.67;;
48534;SDS011;34323;52.022;5.686;2022-10-10T01:09:46;10.82;;;2.33;;
48534;SDS011;34323;52.022;5.686;2022-10-10T01:15:18;9.10;;;2.97;;
48534;SDS011;34323;52.022;5.686;2022-10-10T01:18:10;6.30;;;2.65;;
48534;SDS011;34323;52.022;5.686;2022-10-10T01:28:34;4.43;;;2.78;;
48534;SDS011;34323;52.022;5.686;2022-10-10T01:31:13;3.13;;;1.90;;
48534;SDS011;34323;52.022;5.686;2022-10-10T01:33:53;10.10;;;3.15;;
48534;SDS011;34323;52.022;5.686;2022-10-10T01:36:37;5.40;;;3.17;;
48534;SDS011;34323;52.022;5.686;2022-10-10T01:44:53;4.63;;;2.55;;
48534;SDS011;34323;52.022;5.686;2022-10-10T01:47:20;5.75;;;3.67;;
48534;SDS011;34323;52.022;5.686;2022-10-10T01:49:46;9.00;;;3.13;;
48534;SDS011;34323;52.022;5.686;2022-10-10T01:55:15;8.43;;;2.63;;
48534;SDS011;34323;52.022;5.686;2022-10-10T02:00:41;8.20;;;3.17;;
48534;SDS011;34323;52.022;5.686;2022-10-10T02:03:19;4.38;;;2.67;;
48534;SDS011;34323;52.022;5.686;2022-10-10T02:06:13;5.75;;;3.22;;
48534;SDS011;34323;52.022;5.686;2022-10-10T02:08:43;7.13;;;2.97;;
48534;SDS011;34323;52.022;5.686;2022-10-10T02:11:13;5.40;;;2.85;;
48534;SDS011;34323;52.022;5.686;2022-10-10T02:13:59;5.00;;;3.05;;
48534;SDS011;34323;52.022;5.686;2022-10-10T02:16:34;4.75;;;2.78;;
48534;SDS011;34323;52.022;5.686;2022-10-10T02:19:05;6.95;;;2.75;;
48534;SDS011;34323;52.022;5.686;2022-10-10T02:21:33;8.30;;;3.00;;
48534;SDS011;34323;52.022;5.686;2022-10-10T02:24:00;4.28;;;2.97;;
48534;SDS011;34323;52.022;5.686;2022-10-10T02:26:30;3.70;;;2.70;;
48534;SDS011;34323;52.022;5.686;2022-10-10T02:28:59;5.53;;;2.90;;
48534;SDS011;34323;52.022;5.686;2022-10-10T02:31:36;6.35;;;3.55;;
48534;SDS011;34323;52.022;5.686;2022-10-10T02:34:08;8.68;;;3.38;;
48534;SDS011;34323;52.022;5.686;2022-10-10T02:36:37;9.98;;;3.47;;
48534;SDS011;34323;52.022;5.686;2022-10-10T02:39:05;6.15;;;2.92;;
48534;SDS011;34323;52.022;5.686;2022-10-10T02:41:32;4.38;;;3.03;;
48534;SDS011;34323;52.022;5.686;2022-10-10T02:43:59;5.03;;;2.90;;
48534;SDS011;34323;52.022;5.686;2022-10-10T02:46:24;4.88;;;2.97;;
48534;SDS011;34323;52.022;5.686;2022-10-10T02:48:50;5.93;;;2.88;;
48534;SDS011;34323;52.022;5.686;2022-10-10T02:51:16;5.90;;;3.05;;
48534;SDS011;34323;52.022;5.686;2022-10-10T02:53:42;5.63;;;3.10;;
48534;SDS011;34323;52.022;5.686;2022-10-10T02:56:08;4.90;;;3.30;;
48534;SDS011;34323;52.022;5.686;2022-10-10T02:58:33;4.93;;;3.00;;
48534;SDS011;34323;52.022;5.686;2022-10-10T03:00:59;5.97;;;2.85;;
48534;SDS011;34323;52.022;5.686;2022-10-10T03:03:25;5.10;;;2.80;;
48534;SDS011;34323;52.022;5.686;2022-10-10T03:05:50;6.05;;;3.28;;
48534;SDS011;34323;52.022;5.686;2022-10-10T03:08:16;5.20;;;3.17;;
48534;SDS011;34323;52.022;5.686;2022-10-10T03:10:52;8.13;;;3.00;;
48534;SDS011;34323;52.022;5.686;2022-10-10T03:13:18;5.38;;;2.88;;
48534;SDS011;34323;52.022;5.686;2022-10-10T03:15:44;4.05;;;2.78;;
48534;SDS011;34323;52.022;5.686;2022-10-10T03:18:09;6.03;;;3.15;;
48534;SDS011;34323;52.022;5.686;2022-10-10T03:20:35;5.25;;;2.67;;
48534;SDS011;34323;52.022;5.686;2022-10-10T03:23:00;9.50;;;3.90;;
48534;SDS011;34323;52.022;5.686;2022-10-10T03:25:26;6.70;;;4.43;;
48534;SDS011;34323;52.022;5.686;2022-10-10T03:27:51;5.93;;;3.85;;
48534;SDS011;34323;52.022;5.686;2022-10-10T03:30:17;7.70;;;3.58;;
48534;SDS011;34323;52.022;5.686;2022-10-10T03:32:42;4.97;;;2.90;;
48534;SDS011;34323;52.022;5.686;2022-10-10T03:35:08;8.13;;;3.90;;
48534;SDS011;34323;52.022;5.686;2022-10-10T03:37:34;6.15;;;3.38;;
48534;SDS011;34323;52.022;5.686;2022-10-10T03:40:00;7.20;;;4.15;;
48534;SDS011;34323;52.022;5.686;2022-10-10T03:42:25;8.55;;;3.00;;
48534;SDS011;34323;52.022;5.686;2022-10-10T03:44:51;9.68;;;2.90;;
48534;SDS011;34323;52.022;5.686;2022-10-10T03:47:16;5.07;;;3.10;;
48534;SDS011;34323;52.022;5.686;2022-10-10T03:49:42;4.72;;;3.22;;
48534;SDS011;34323;52.022;5.686;2022-10-10T03:52:07;3.95;;;2.85;;
48534;SDS011;34323;52.022;5.686;2022-10-10T03:54:33;7.82;;;3.00;;
48534;SDS011;34323;52.022;5.686;2022-10-10T03:56:58;6.15;;;3.60;;
48534;SDS011;34323;52.022;5.686;2022-10-10T03:59:24;7.03;;;3.67;;
48534;SDS011;34323;52.022;5.686;2022-10-10T04:01:49;12.35;;;3.80;;
48534;SDS011;34323;52.022;5.686;2022-10-10T04:04:15;6.57;;;3.65;;
48534;SDS011;34323;52.022;5.686;2022-10-10T04:06:41;9.13;;;4.15;;
48534;SDS011;34323;52.022;5.686;2022-10-10T04:09:06;7.70;;;3.55;;
48534;SDS011;34323;52.022;5.686;2022-10-10T04:11:32;5.68;;;3.45;;
48534;SDS011;34323;52.022;5.686;2022-10-10T04:13:59;11.93;;;3.40;;
48534;SDS011;34323;52.022;5.686;2022-10-10T04:16:24;6.47;;;3.72;;
48534;SDS011;34323;52.022;5.686;2022-10-10T04:18:50;21.40;;;4.18;;
48534;SDS011;34323;52.022;5.686;2022-10-10T04:21:15;8.10;;;3.67;;
48534;SDS011;34323;52.022;5.686;2022-10-10T04:23:41;6.55;;;3.60;;
48534;SDS011;34323;52.022;5.686;2022-10-10T04:26:07;11.35;;;4.05;;
48534;SDS011;34323;52.022;5.686;2022-10-10T04:28:32;9.88;;;4.03;;
48534;SDS011;34323;52.022;5.686;2022-10-10T04:30:58;7.63;;;4.15;;
48534;SDS011;34323;52.022;5.686;2022-10-10T04:33:23;6.80;;;3.80;;
48534;SDS011;34323;52.022;5.686;2022-10-10T04:35:49;6.68;;;3.78;;
48534;SDS011;34323;52.022;5.686;2022-10-10T04:38:14;5.75;;;3.55;;
48534;SDS011;34323;52.022;5.686;2022-10-10T04:40:41;10.65;;;3.97;;
48534;SDS011;34323;52.022;5.686;2022-10-10T04:43:07;5.25;;;3.42;;
48534;SDS011;34323;52.022;5.686;2022-10-10T04:45:32;6.10;;;3.92;;
48534;SDS011;34323;52.022;5.686;2022-10-10T04:47:58;6.72;;;3.78;;
48534;SDS011;34323;52.022;5.686;2022-10-10T04:50:23;13.25;;;3.78;;
48534;SDS011;34323;52.022;5.686;2022-10-10T04:52:49;6.85;;;3.88;;
48534;SDS011;34323;52.022;5.686;2022-10-10T04:55:15;6.30;;;3.95;;
48534;SDS011;34323;52.022;5.686;2022-10-10T04:57:40;5.30;;;3.30;;
48534;SDS011;34323;52.022;5.686;2022-10-10T05:00:06;11.35;;;3.67;;
48534;SDS011;34323;52.022;5.686;2022-10-10T05:02:33;9.35;;;3.88;;
48534;SDS011;34323;52.022;5.686;2022-10-10T05:04:58;7.63;;;4.20;;
48534;SDS011;34323;52.022;5.686;2022-10-10T05:07:24;7.55;;;4.28;;
48534;SDS011;34323;52.022;5.686;2022-10-10T05:09:49;11.38;;;4.35;;
48534;SDS011;34323;52.022;5.686;2022-10-10T05:12:15;8.75;;;3.92;;
48534;SDS011;34323;52.022;5.686;2022-10-10T05:14:41;6.78;;;3.90;;
48534;SDS011;34323;52.022;5.686;2022-10-10T05:17:06;11.77;;;4.00;;
48534;SDS011;34323;52.022;5.686;2022-10-10T05:19:32;8.20;;;3.85;;
48534;SDS011;34323;52.022;5.686;2022-10-10T05:21:57;6.47;;;3.88;;
48534;SDS011;34323;52.022;5.686;2022-10-10T05:24:23;8.60;;;4.25;;
48534;SDS011;34323;52.022;5.686;2022-10-10T05:26:49;6.85;;;3.60;;
48534;SDS011;34323;52.022;5.686;2022-10-10T05:29:14;9.50;;;4.80;;
48534;SDS011;34323;52.022;5.686;2022-10-10T05:31:40;6.93;;;3.92;;
48534;SDS011;34323;52.022;5.686;2022-10-10T05:34:05;10.23;;;4.90;;
48534;SDS011;34323;52.022;5.686;2022-10-10T05:36:31;7.00;;;4.03;;
48534;SDS011;34323;52.022;5.686;2022-10-10T05:38:56;8.07;;;4.60;;
48534;SDS011;34323;52.022;5.686;2022-10-10T05:41:22;7.80;;;4.65;;
48534;SDS011;34323;52.022;5.686;2022-10-10T05:43:47;7.22;;;4.60;;
48534;SDS011;34323;52.022;5.686;2022-10-10T05:46:13;11.18;;;4.65;;
48534;SDS011;34323;52.022;5.686;2022-10-10T05:48:39;6.50;;;4.30;;
48534;SDS011;34323;52.022;5.686;2022-10-10T05:51:04;9.52;;;5.28;;
48534;SDS011;34323;52.022;5.686;2022-10-10T05:53:31;6.53;;;4.22;;
48534;SDS011;34323;52.022;5.686;2022-10-10T05:55:59;10.80;;;4.82;;
48534;SDS011;34323;52.022;5.686;2022-10-10T05:58:25;9.93;;;4.78;;
48534;SDS011;34323;52.022;5.686;2022-10-10T06:00:50;12.38;;;5.22;;
48534;SDS011;34323;52.022;5.686;2022-10-10T06:03:16;10.10;;;5.15;;
48534;SDS011;34323;52.022;5.686;2022-10-10T06:05:42;7.40;;;4.75;;
48534;SDS011;34323;52.022;5.686;2022-10-10T06:08:09;11.75;;;5.60;;
48534;SDS011;34323;52.022;5.686;2022-10-10T06:10:36;10.57;;;5.05;;
48534;SDS011;34323;52.022;5.686;2022-10-10T06:13:03;9.60;;;3.97;;
48534;SDS011;34323;52.022;5.686;2022-10-10T06:15:28;7.57;;;4.60;;
48534;SDS011;34323;52.022;5.686;2022-10-10T06:17:54;7.05;;;5.00;;
48534;SDS011;34323;52.022;5.686;2022-10-10T06:20:19;10.32;;;5.32;;
48534;SDS011;34323;52.022;5.686;2022-10-10T06:22:45;11.23;;;5.18;;
48534;SDS011;34323;52.022;5.686;2022-10-10T06:25:11;18.23;;;5.85;;
48534;SDS011;34323;52.022;5.686;2022-10-10T06:27:36;8.35;;;5.22;;
48534;SDS011;34323;52.022;5.686;2022-10-10T06:30:02;7.45;;;4.70;;
48534;SDS011;34323;52.022;5.686;2022-10-10T06:32:28;8.25;;;5.15;;
48534;SDS011;34323;52.022;5.686;2022-10-10T06:34:54;7.40;;;4.88;;
48534;SDS011;34323;52.022;5.686;2022-10-10T06:37:19;12.60;;;6.22;;
48534;SDS011;34323;52.022;5.686;2022-10-10T06:39:45;9.27;;;5.22;;
48534;SDS011;34323;52.022;5.686;2022-10-10T06:42:10;9.07;;;5.50;;
48534;SDS011;34323;52.022;5.686;2022-10-10T06:44:36;11.07;;;5.38;;
48534;SDS011;34323;52.022;5.686;2022-10-10T06:47:01;10.07;;;5.40;;
48534;SDS011;34323;52.022;5.686;2022-10-10T06:49:27;10.38;;;5.65;;
48534;SDS011;34323;52.022;5.686;2022-10-10T06:51:53;12.13;;;5.85;;
48534;SDS011;34323;52.022;5.686;2022-10-10T06:54:19;13.20;;;6.28;;
48534;SDS011;34323;52.022;5.686;2022-10-10T06:56:44;10.80;;;6.40;;
48534;SDS011;34323;52.022;5.686;2022-10-10T06:59:10;12.65;;;5.82;;
48534;SDS011;34323;52.022;5.686;2022-10-10T07:01:36;13.20;;;6.55;;
48534;SDS011;34323;52.022;5.686;2022-10-10T07:04:02;10.35;;;5.35;;
48534;SDS011;34323;52.022;5.686;2022-10-10T07:06:27;11.68;;;5.70;;
48534;SDS011;34323;52.022;5.686;2022-10-10T07:08:53;9.88;;;6.38;;
48534;SDS011;34323;52.022;5.686;2022-10-10T07:11:19;12.02;;;6.53;;
48534;SDS011;34323;52.022;5.686;2022-10-10T07:13:44;7.57;;;4.88;;
48534;SDS011;34323;52.022;5.686;2022-10-10T07:16:10;10.43;;;6.00;;
48534;SDS011;34323;52.022;5.686;2022-10-10T07:18:35;10.27;;;5.95;;
48534;SDS011;34323;52.022;5.686;2022-10-10T07:21:02;10.00;;;6.30;;
48534;SDS011;34323;52.022;5.686;2022-10-10T07:23:28;20.95;;;6.93;;
48534;SDS011;34323;52.022;5.686;2022-10-10T07:26:13;12.18;;;6.43;;
48534;SDS011;34323;52.022;5.686;2022-10-10T07:28:40;9.48;;;6.00;;
48534;SDS011;34323;52.022;5.686;2022-10-10T07:31:07;8.30;;;5.05;;
48534;SDS011;34323;52.022;5.686;2022-10-10T07:33:39;8.98;;;5.68;;
48534;SDS011;34323;52.022;5.686;2022-10-10T07:36:06;9.15;;;5.72;;
48534;SDS011;34323;52.022;5.686;2022-10-10T07:38:32;10.93;;;5.80;;
48534;SDS011;34323;52.022;5.686;2022-10-10T07:40:59;9.98;;;6.57;;
48534;SDS011;34323;52.022;5.686;2022-10-10T07:43:24;12.70;;;5.53;;
48534;SDS011;34323;52.022;5.686;2022-10-10T07:45:50;9.30;;;5.85;;
48534;SDS011;34323;52.022;5.686;2022-10-10T07:48:15;8.95;;;6.18;;
48534;SDS011;34323;52.022;5.686;2022-10-10T07:50:42;8.00;;;6.03;;
48534;SDS011;34323;52.022;5.686;2022-10-10T07:53:09;13.68;;;6.43;;
48534;SDS011;34323;52.022;5.686;2022-10-10T07:55:37;9.40;;;5.95;;
48534;SDS011;34323;52.022;5.686;2022-10-10T07:58:04;8.60;;;5.90;;
48534;SDS011;34323;52.022;5.686;2022-10-10T08:00:30;8.57;;;5.72;;
48534;SDS011;34323;52.022;5.686;2022-10-10T08:02:55;10.73;;;6.28;;
48534;SDS011;34323;52.022;5.686;2022-10-10T08:05:22;10.80;;;5.93;;
48534;SDS011;34323;52.022;5.686;2022-10-10T08:07:48;8.85;;;6.57;;
48534;SDS011;34323;52.022;5.686;2022-10-10T08:10:13;10.20;;;5.45;;
48534;SDS011;34323;52.022;5.686;2022-10-10T08:12:39;11.57;;;6.38;;
48534;SDS011;34323;52.022;5.686;2022-10-10T08:15:05;12.32;;;6.28;;
48534;SDS011;34323;52.022;5.686;2022-10-10T08:17:31;16.55;;;7.10;;
48534;SDS011;34323;52.022;5.686;2022-10-10T08:19:56;11.88;;;6.40;;
48534;SDS011;34323;52.022;5.686;2022-10-10T08:22:22;10.02;;;5.90;;
48534;SDS011;34323;52.022;5.686;2022-10-10T08:24:48;12.65;;;6.40;;
48534;SDS011;34323;52.022;5.686;2022-10-10T08:27:13;13.40;;;5.75;;
48534;SDS011;34323;52.022;5.686;2022-10-10T08:29:41;13.85;;;6.20;;
48534;SDS011;34323;52.022;5.686;2022-10-10T08:32:07;10.48;;;6.60;;
48534;SDS011;34323;52.022;5.686;2022-10-10T08:34:33;8.40;;;5.47;;
48534;SDS011;34323;52.022;5.686;2022-10-10T08:36:58;7.88;;;4.75;;
48534;SDS011;34323;52.022;5.686;2022-10-10T08:39:24;11.95;;;5.05;;
48534;SDS011;34323;52.022;5.686;2022-10-10T08:41:50;11.15;;;5.25;;
48534;SDS011;34323;52.022;5.686;2022-10-10T08:44:29;7.50;;;5.30;;
48534;SDS011;34323;52.022;5.686;2022-10-10T08:49:34;6.90;;;4.68;;
48534;SDS011;34323;52.022;5.686;2022-10-10T08:52:05;7.22;;;5.05;;
48534;SDS011;34323;52.022;5.686;2022-10-10T08:54:32;7.57;;;5.35;;
48534;SDS011;34323;52.022;5.686;2022-10-10T08:57:02;8.85;;;5.13;;
48534;SDS011;34323;52.022;5.686;2022-10-10T08:59:32;11.23;;;5.93;;
48534;SDS011;34323;52.022;5.686;2022-10-10T09:04:47;10.43;;;5.10;;
48534;SDS011;34323;52.022;5.686;2022-10-10T09:07:35;9.10;;;5.53;;
48534;SDS011;34323;52.022;5.686;2022-10-10T09:15:45;9.13;;;5.22;;
48534;SDS011;34323;52.022;5.686;2022-10-10T09:18:46;9.02;;;5.00;;
48534;SDS011;34323;52.022;5.686;2022-10-10T09:21:30;10.25;;;5.57;;
48534;SDS011;34323;52.022;5.686;2022-10-10T09:24:11;8.85;;;5.68;;
48534;SDS011;34323;52.022;5.686;2022-10-10T09:26:44;12.77;;;5.32;;
48534;SDS011;34323;52.022;5.686;2022-10-10T09:31:57;8.90;;;4.50;;
48534;SDS011;34323;52.022;5.686;2022-10-10T09:34:37;9.02;;;5.15;;
48534;SDS011;34323;52.022;5.686;2022-10-10T09:37:20;8.43;;;5.20;;
48534;SDS011;34323;52.022;5.686;2022-10-10T09:39:56;10.30;;;5.53;;
48534;SDS011;34323;52.022;5.686;2022-10-10T09:44:59;14.82;;;5.38;;
48534;SDS011;34323;52.022;5.686;2022-10-10T09:47:25;10.35;;;5.35;;
48534;SDS011;34323;52.022;5.686;2022-10-10T09:49:52;6.80;;;4.85;;
48534;SDS011;34323;52.022;5.686;2022-10-10T09:52:28;13.98;;;4.47;;
48534;SDS011;34323;52.022;5.686;2022-10-10T09:54:57;8.88;;;4.88;;
48534;SDS011;34323;52.022;5.686;2022-10-10T09:57:27;9.23;;;5.43;;
48534;SDS011;34323;52.022;5.686;2022-10-10T09:59:57;8.88;;;5.55;;
48534;SDS011;34323;52.022;5.686;2022-10-10T10:02:24;7.28;;;5.05;;
48534;SDS011;34323;52.022;5.686;2022-10-10T10:04:51;7.85;;;4.80;;
48534;SDS011;34323;52.022;5.686;2022-10-10T10:07:28;7.57;;;5.13;;
48534;SDS011;34323;52.022;5.686;2022-10-10T10:09:56;9.15;;;4.95;;
48534;SDS011;34323;52.022;5.686;2022-10-10T10:12:27;12.52;;;5.00;;
48534;SDS011;34323;52.022;5.686;2022-10-10T10:15:05;8.70;;;5.00;;
48534;SDS011;34323;52.022;5.686;2022-10-10T10:17:40;9.88;;;5.38;;
48534;SDS011;34323;52.022;5.686;2022-10-10T10:20:49;11.10;;;5.55;;
48534;SDS011;34323;52.022;5.686;2022-10-10T10:22:57;12.68;;;5.40;;
48534;SDS011;34323;52.022;5.686;2022-10-10T10:25:30;7.13;;;5.00;;
48534;SDS011;34323;52.022;5.686;2022-10-10T10:30:43;9.35;;;5.30;;
48534;SDS011;34323;52.022;5.686;2022-10-10T10:36:20;10.18;;;5.38;;
48534;SDS011;34323;52.022;5.686;2022-10-10T10:41:29;7.60;;;4.68;;
48534;SDS011;34323;52.022;5.686;2022-10-10T10:46:57;15.80;;;5.10;;
48534;SDS011;34323;52.022;5.686;2022-10-10T11:00:53;7.70;;;4.53;;
48534;SDS011;34323;52.022;5.686;2022-10-10T11:03:46;8.32;;;4.95;;
48534;SDS011;34323;52.022;5.686;2022-10-10T11:06:35;9.68;;;4.10;;
48534;SDS011;34323;52.022;5.686;2022-10-10T11:12:01;5.82;;;4.38;;
48534;SDS011;34323;52.022;5.686;2022-10-10T11:17:05;7.32;;;3.95;;
48534;SDS011;34323;52.022;5.686;2022-10-10T11:19:57;7.45;;;4.45;;
48534;SDS011;34323;52.022;5.686;2022-10-10T11:23:06;7.97;;;4.22;;
48534;SDS011;34323;52.022;5.686;2022-10-10T11:25:42;7.38;;;4.70;;
48534;SDS011;34323;52.022;5.686;2022-10-10T11:30:56;11.20;;;5.55;;
48534;SDS011;34323;52.022;5.686;2022-10-10T11:33:28;8.68;;;4.78;;
48534;SDS011;34323;52.022;5.686;2022-10-10T11:36:03;8.55;;;4.70;;
48534;SDS011;34323;52.022;5.686;2022-10-10T11:38:56;5.97;;;3.83;;
48534;SDS011;34323;52.022;5.686;2022-10-10T11:41:36;8.00;;;5.03;;
48534;SDS011;34323;52.022;5.686;2022-10-10T11:44:17;8.30;;;4.53;;
48534;SDS011;34323;52.022;5.686;2022-10-10T11:49:26;8.55;;;4.60;;
48534;SDS011;34323;52.022;5.686;2022-10-10T11:52:09;11.38;;;4.20;;
48534;SDS011;34323;52.022;5.686;2022-10-10T11:54:56;9.00;;;4.47;;
48534;SDS011;34323;52.022;5.686;2022-10-10T11:57:42;7.18;;;4.35;;
48534;SDS011;34323;52.022;5.686;2022-10-10T12:00:13;6.93;;;4.03;;
48534;SDS011;34323;52.022;5.686;2022-10-10T12:02:40;8.15;;;4.70;;
48534;SDS011;34323;52.022;5.686;2022-10-10T12:05:29;8.50;;;4.47;;
48534;SDS011;34323;52.022;5.686;2022-10-10T12:08:02;9.38;;;4.70;;
48534;SDS011;34323;52.022;5.686;2022-10-10T12:10:39;16.08;;;5.30;;
48534;SDS011;34323;52.022;5.686;2022-10-10T12:13:33;7.03;;;4.22;;
48534;SDS011;34323;52.022;5.686;2022-10-10T12:16:08;7.45;;;4.55;;
48534;SDS011;34323;52.022;5.686;2022-10-10T12:18:42;9.20;;;3.97;;
48534;SDS011;34323;52.022;5.686;2022-10-10T12:21:14;7.32;;;4.80;;
48534;SDS011;34323;52.022;5.686;2022-10-10T12:23:42;7.50;;;4.15;;
48534;SDS011;34323;52.022;5.686;2022-10-10T12:26:15;9.35;;;4.88;;
48534;SDS011;34323;52.022;5.686;2022-10-10T12:31:29;11.85;;;5.18;;
48534;SDS011;34323;52.022;5.686;2022-10-10T12:33:59;11.68;;;5.78;;
48534;SDS011;34323;52.022;5.686;2022-10-10T12:46:38;9.38;;;5.45;;
48534;SDS011;34323;52.022;5.686;2022-10-10T12:49:13;7.13;;;5.10;;
48534;SDS011;34323;52.022;5.686;2022-10-10T12:51:42;10.38;;;4.78;;
48534;SDS011;34323;52.022;5.686;2022-10-10T12:54:26;14.30;;;5.38;;
48534;SDS011;34323;52.022;5.686;2022-10-10T12:57:05;9.98;;;4.97;;
48534;SDS011;34323;52.022;5.686;2022-10-10T12:59:37;17.55;;;6.00;;
48534;SDS011;34323;52.022;5.686;2022-10-10T13:02:19;9.68;;;5.13;;
48534;SDS011;34323;52.022;5.686;2022-10-10T13:04:50;8.70;;;4.85;;
48534;SDS011;34323;52.022;5.686;2022-10-10T13:07:18;11.63;;;5.88;;
48534;SDS011;34323;52.022;5.686;2022-10-10T13:09:46;11.82;;;5.05;;
48534;SDS011;34323;52.022;5.686;2022-10-10T13:12:23;10.15;;;6.70;;
48534;SDS011;34323;52.022;5.686;2022-10-10T13:14:50;9.15;;;4.90;;
48534;SDS011;34323;52.022;5.686;2022-10-10T13:17:27;8.07;;;5.75;;
48534;SDS011;34323;52.022;5.686;2022-10-10T13:19:55;10.85;;;6.72;;
48534;SDS011;34323;52.022;5.686;2022-10-10T13:22:22;12.25;;;7.25;;
48534;SDS011;34323;52.022;5.686;2022-10-10T13:24:48;10.38;;;6.15;;
48534;SDS011;34323;52.022;5.686;2022-10-10T13:27:22;13.25;;;6.55;;
48534;SDS011;34323;52.022;5.686;2022-10-10T13:29:50;8.50;;;6.10;;
48534;SDS011;34323;52.022;5.686;2022-10-10T13:32:19;9.60;;;5.70;;
48534;SDS011;34323;52.022;5.686;2022-10-10T13:34:52;16.90;;;7.13;;
48534;SDS011;34323;52.022;5.686;2022-10-10T13:37:36;12.50;;;5.97;;
48534;SDS011;34323;52.022;5.686;2022-10-10T13:40:03;10.10;;;6.57;;
48534;SDS011;34323;52.022;5.686;2022-10-10T13:45:26;8.75;;;6.53;;
48534;SDS011;34323;52.022;5.686;2022-10-10T13:50:48;13.07;;;6.05;;
48534;SDS011;34323;52.022;5.686;2022-10-10T13:53:42;9.40;;;6.47;;
48534;SDS011;34323;52.022;5.686;2022-10-10T13:59:10;10.02;;;7.03;;
48534;SDS011;34323;52.022;5.686;2022-10-10T14:01:45;12.45;;;6.85;;
48534;SDS011;34323;52.022;5.686;2022-10-10T14:06:45;10.43;;;6.85;;
48534;SDS011;34323;52.022;5.686;2022-10-10T14:09:25;10.20;;;7.05;;
48534;SDS011;34323;52.022;5.686;2022-10-10T14:11:56;14.38;;;6.70;;
48534;SDS011;34323;52.022;5.686;2022-10-10T14:14:30;11.65;;;6.53;;
48534;SDS011;34323;52.022;5.686;2022-10-10T14:17:07;9.45;;;5.18;;
48534;SDS011;34323;52.022;5.686;2022-10-10T14:19:35;10.95;;;5.07;;
48534;SDS011;34323;52.022;5.686;2022-10-10T14:22:01;9.98;;;5.18;;
48534;SDS011;34323;52.022;5.686;2022-10-10T14:24:26;12.65;;;5.10;;
48534;SDS011;34323;52.022;5.686;2022-10-10T14:26:52;8.93;;;4.53;;
48534;SDS011;34323;52.022;5.686;2022-10-10T14:29:17;4.80;;;2.00;;
48534;SDS011;34323;52.022;5.686;2022-10-10T14:31:44;2.75;;;1.50;;
48534;SDS011;34323;52.022;5.686;2022-10-10T14:34:11;1.42;;;0.93;;
48534;SDS011;34323;52.022;5.686;2022-10-10T14:36:41;1.30;;;0.60;;
48534;SDS011;34323;52.022;5.686;2022-10-10T14:41:37;1.38;;;0.70;;
48534;SDS011;34323;52.022;5.686;2022-10-10T14:44:03;1.38;;;1.13;;
48534;SDS011;34323;52.022;5.686;2022-10-10T14:46:28;1.75;;;0.63;;
48534;SDS011;34323;52.022;5.686;2022-10-10T14:48:54;0.28;;;0.25;;
48534;SDS011;34323;52.022;5.686;2022-10-10T14:51:19;1.67;;;0.82;;
48534;SDS011;34323;52.022;5.686;2022-10-10T14:53:45;0.70;;;0.60;;
48534;SDS011;34323;52.022;5.686;2022-10-10T14:56:10;1.83;;;0.63;;
48534;SDS011;34323;52.022;5.686;2022-10-10T14:58:37;4.20;;;0.90;;
48534;SDS011;34323;52.022;5.686;2022-10-10T15:01:02;2.83;;;0.60;;
48534;SDS011;34323;52.022;5.686;2022-10-10T15:03:28;1.45;;;0.55;;
48534;SDS011;34323;52.022;5.686;2022-10-10T15:05:53;3.05;;;0.68;;
48534;SDS011;34323;52.022;5.686;2022-10-10T15:08:19;3.53;;;0.90;;
48534;SDS011;34323;52.022;5.686;2022-10-10T15:10:45;7.43;;;1.25;;
48534;SDS011;34323;52.022;5.686;2022-10-10T15:13:11;4.07;;;0.77;;
48534;SDS011;34323;52.022;5.686;2022-10-10T15:15:37;5.93;;;1.13;;
48534;SDS011;34323;52.022;5.686;2022-10-10T15:18:02;2.58;;;0.75;;
48534;SDS011;34323;52.022;5.686;2022-10-10T15:20:28;2.88;;;1.13;;
48534;SDS011;34323;52.022;5.686;2022-10-10T15:23:02;8.15;;;1.20;;
48534;SDS011;34323;52.022;5.686;2022-10-10T15:25:28;3.75;;;1.10;;
48534;SDS011;34323;52.022;5.686;2022-10-10T15:27:54;3.47;;;0.90;;
48534;SDS011;34323;52.022;5.686;2022-10-10T15:30:20;4.40;;;1.17;;
48534;SDS011;34323;52.022;5.686;2022-10-10T15:32:47;8.50;;;1.55;;
48534;SDS011;34323;52.022;5.686;2022-10-10T15:35:13;6.15;;;1.08;;
48534;SDS011;34323;52.022;5.686;2022-10-10T15:37:40;4.72;;;1.02;;
48534;SDS011;34323;52.022;5.686;2022-10-10T15:40:06;5.88;;;1.33;;
48534;SDS011;34323;52.022;5.686;2022-10-10T15:42:32;4.35;;;1.20;;
48534;SDS011;34323;52.022;5.686;2022-10-10T15:44:57;2.97;;;1.10;;
48534;SDS011;34323;52.022;5.686;2022-10-10T15:47:23;7.18;;;2.08;;
48534;SDS011;34323;52.022;5.686;2022-10-10T15:49:49;7.55;;;1.48;;
48534;SDS011;34323;52.022;5.686;2022-10-10T15:52:15;10.85;;;2.45;;
48534;SDS011;34323;52.022;5.686;2022-10-10T15:54:41;11.85;;;2.22;;
48534;SDS011;34323;52.022;5.686;2022-10-10T15:57:07;3.90;;;1.23;;
48534;SDS011;34323;52.022;5.686;2022-10-10T15:59:32;8.75;;;2.97;;
48534;SDS011;34323;52.022;5.686;2022-10-10T16:01:59;11.15;;;2.78;;
48534;SDS011;34323;52.022;5.686;2022-10-10T16:04:25;8.88;;;2.03;;
48534;SDS011;34323;52.022;5.686;2022-10-10T16:06:50;7.07;;;1.63;;
48534;SDS011;34323;52.022;5.686;2022-10-10T16:09:17;10.63;;;1.75;;
48534;SDS011;34323;52.022;5.686;2022-10-10T16:11:43;6.60;;;1.27;;
48534;SDS011;34323;52.022;5.686;2022-10-10T16:14:08;10.95;;;2.17;;
48534;SDS011;34323;52.022;5.686;2022-10-10T16:16:34;5.13;;;1.83;;
48534;SDS011;34323;52.022;5.686;2022-10-10T16:18:59;10.52;;;2.17;;
48534;SDS011;34323;52.022;5.686;2022-10-10T16:21:25;11.65;;;1.55;;
48534;SDS011;34323;52.022;5.686;2022-10-10T16:23:51;6.70;;;1.65;;
48534;SDS011;34323;52.022;5.686;2022-10-10T16:26:18;8.43;;;1.70;;
48534;SDS011;34323;52.022;5.686;2022-10-10T16:28:48;9.52;;;1.65;;
48534;SDS011;34323;52.022;5.686;2022-10-10T16:31:15;6.85;;;1.70;;
48534;SDS011;34323;52.022;5.686;2022-10-10T16:33:43;9.73;;;2.03;;